createdAt,value
2023-04-15T00:00:00.562Z,3.95
2023-04-15T00:01:00.557Z,3.92
2023-04-15T00:02:00.651Z,3.92
2023-04-15T00:03:00.694Z,3.92
2023-04-15T00:04:00.651Z,3.94
2023-04-15T00:05:00.526Z,3.92
2023-04-15T00:06:00.490Z,3.94
2023-04-15T00:07:00.470Z,3.94
2023-04-15T00:08:00.475Z,3.94
2023-04-15T00:09:00.764Z,3.91
2023-04-15T00:10:00.429Z,3.88
2023-04-15T00:11:00.437Z,3.88
2023-04-15T00:12:00.444Z,3.87
2023-04-15T00:13:00.426Z,3.88
2023-04-15T00:14:00.383Z,3.87
2023-04-15T00:15:00.377Z,3.91
2023-04-15T00:16:00.346Z,3.92
2023-04-15T00:17:00.358Z,3.92
2023-04-15T00:18:00.383Z,3.92
2023-04-15T00:19:00.585Z,3.92
2023-04-15T00:20:00.288Z,3.95
2023-04-15T00:21:00.331Z,3.94
2023-04-15T00:22:00.309Z,3.94
2023-04-15T00:23:00.259Z,3.95
2023-04-15T00:24:00.269Z,3.98
2023-04-15T00:25:00.263Z,3.98
2023-04-15T00:26:00.244Z,3.98
2023-04-15T00:27:00.204Z,3.96
2023-04-15T00:28:00.201Z,3.98
2023-04-15T00:29:00.336Z,3.98
2023-04-15T00:30:00.228Z,3.98
2023-04-15T00:31:00.251Z,3.99
2023-04-15T00:32:00.131Z,3.99
2023-04-15T00:33:00.218Z,3.98
2023-04-15T00:34:00.126Z,3.98
2023-04-15T00:35:00.131Z,3.98
2023-04-15T00:36:00.084Z,3.99
2023-04-15T00:37:00.078Z,3.96
2023-04-15T00:38:00.068Z,3.96
2023-04-15T00:39:00.305Z,3.98
2023-04-15T00:40:00.059Z,3.96
2023-04-15T00:41:00.024Z,3.98
2023-04-15T00:41:59.990Z,3.98
2023-04-15T00:43:00.008Z,3.99
2023-04-15T00:44:00.034Z,4.02
2023-04-15T00:44:59.953Z,4.02
2023-04-15T00:46:00.021Z,3.99
2023-04-15T00:46:59.932Z,3.99
2023-04-15T00:47:59.981Z,3.99
2023-04-15T00:49:00.170Z,3.98
2023-04-15T00:49:59.902Z,3.99
2023-04-15T00:50:59.889Z,3.98
2023-04-15T00:51:59.893Z,3.98
2023-04-15T00:52:59.882Z,3.98
2023-04-15T00:53:59.852Z,3.99
2023-04-15T00:54:59.837Z,3.99
2023-04-15T00:55:59.864Z,3.99
2023-04-15T00:56:59.805Z,4.01
2023-04-15T00:57:59.785Z,4.02
2023-04-15T00:58:59.997Z,4.04
2023-04-15T00:59:59.762Z,4.01
2023-04-15T01:00:59.776Z,4.01
2023-04-15T01:01:59.821Z,4.01
2023-04-15T01:02:59.955Z,4.01
2023-04-15T01:03:59.806Z,4.01
2023-04-15T01:04:59.707Z,4.02
2023-04-15T01:06:00.908Z,4.01
2023-04-15T01:06:59.677Z,3.98
2023-04-15T01:07:59.661Z,3.99
2023-04-15T01:08:59.912Z,3.98
2023-04-15T01:09:59.631Z,3.99
2023-04-15T01:10:59.650Z,4.01
2023-04-15T01:11:59.660Z,4.01
2023-04-15T01:12:59.585Z,4.02
2023-04-15T01:13:59.609Z,4.04
2023-04-15T01:14:59.574Z,4.04
2023-04-15T01:15:59.674Z,4.05
2023-04-15T01:16:59.539Z,4.06
2023-04-15T01:17:59.605Z,4.08
2023-04-15T01:18:59.745Z,4.10
2023-04-15T01:19:59.504Z,4.10
2023-04-15T01:20:59.489Z,4.06
2023-04-15T01:21:59.505Z,4.06
2023-04-15T01:22:59.470Z,4.08
2023-04-15T01:23:59.479Z,4.08
2023-04-15T01:24:59.426Z,4.13
2023-04-15T01:25:59.429Z,4.12
2023-04-15T01:26:59.410Z,4.12
2023-04-15T01:27:59.410Z,4.12
2023-04-15T01:28:59.644Z,4.13
2023-04-15T01:29:59.397Z,4.12
2023-04-15T01:30:59.346Z,4.14
2023-04-15T01:31:59.433Z,4.16
2023-04-15T01:32:59.386Z,4.17
2023-04-15T01:33:59.300Z,4.17
2023-04-15T01:34:59.357Z,4.17
2023-04-15T01:35:59.281Z,4.17
2023-04-15T01:36:59.274Z,4.16
2023-04-15T01:37:59.261Z,4.13
2023-04-15T01:38:59.545Z,4.12
2023-04-15T01:39:59.236Z,4.10
2023-04-15T01:40:59.239Z,4.08
2023-04-15T01:41:59.243Z,4.10
2023-04-15T01:42:59.203Z,4.10
2023-04-15T01:43:59.219Z,4.12
2023-04-15T01:44:59.168Z,4.08
2023-04-15T01:45:59.159Z,4.08
2023-04-15T01:46:59.226Z,4.06
2023-04-15T01:47:59.178Z,4.08
2023-04-15T01:48:59.372Z,4.08
2023-04-15T01:49:59.122Z,4.12
2023-04-15T01:50:59.104Z,4.13
2023-04-15T01:51:59.107Z,4.12
2023-04-15T01:52:59.063Z,4.14
2023-04-15T01:53:59.050Z,4.16
2023-04-15T01:54:59.019Z,4.16
2023-04-15T01:55:59.023Z,4.14
2023-04-15T01:56:59.000Z,4.14
2023-04-15T01:57:59.010Z,4.13
2023-04-15T01:58:59.231Z,4.14
2023-04-15T01:59:59.010Z,4.14
2023-04-15T02:00:58.995Z,4.16
2023-04-15T02:01:59.037Z,4.14
2023-04-15T02:02:59.010Z,4.13
2023-04-15T02:03:58.950Z,4.14
2023-04-15T02:04:58.976Z,4.14
2023-04-15T02:05:58.902Z,4.16
2023-04-15T02:06:58.953Z,4.16
2023-04-15T02:07:58.882Z,4.16
2023-04-15T02:08:59.099Z,4.14
2023-04-15T02:09:58.868Z,4.16
2023-04-15T02:10:58.819Z,4.14
2023-04-15T02:11:58.816Z,4.16
2023-04-15T02:12:58.824Z,4.17
2023-04-15T02:13:58.791Z,4.17
2023-04-15T02:14:58.787Z,4.17
2023-04-15T02:15:58.791Z,4.17
2023-04-15T02:16:58.836Z,4.17
2023-04-15T02:17:58.765Z,4.13
2023-04-15T02:18:58.851Z,4.08
2023-04-15T02:19:58.723Z,4.10
2023-04-15T02:20:59.059Z,4.08
2023-04-15T02:21:58.679Z,4.06
2023-04-15T02:22:58.677Z,4.06
2023-04-15T02:23:58.653Z,4.10
2023-04-15T02:24:58.656Z,4.08
2023-04-15T02:25:58.629Z,4.08
2023-04-15T02:26:58.602Z,4.06
2023-04-15T02:27:58.607Z,4.10
2023-04-15T02:28:58.847Z,4.12
2023-04-15T02:29:58.557Z,4.12
2023-04-15T02:30:58.574Z,4.13
2023-04-15T02:31:58.625Z,4.13
2023-04-15T02:32:58.617Z,4.13
2023-04-15T02:33:58.558Z,4.14
2023-04-15T02:34:58.513Z,4.13
2023-04-15T02:35:58.493Z,4.14
2023-04-15T02:36:58.481Z,4.14
2023-04-15T02:37:58.478Z,4.16
2023-04-15T02:38:58.528Z,4.16
2023-04-15T02:39:58.445Z,4.16
2023-04-15T02:40:58.430Z,4.14
2023-04-15T02:41:58.401Z,4.14
2023-04-15T02:42:58.410Z,4.14
2023-04-15T02:43:58.414Z,4.14
2023-04-15T02:44:58.365Z,4.14
2023-04-15T02:45:58.376Z,4.14
2023-04-15T02:46:58.366Z,4.16
2023-04-15T02:47:58.426Z,4.17
2023-04-15T02:48:58.377Z,4.19
2023-04-15T02:49:58.314Z,4.20
2023-04-15T02:50:58.282Z,4.22
2023-04-15T02:51:58.301Z,4.23
2023-04-15T02:52:58.258Z,4.22
2023-04-15T02:53:58.283Z,4.23
2023-04-15T02:54:58.226Z,4.24
2023-04-15T02:55:58.228Z,4.23
2023-04-15T02:56:58.226Z,4.23
2023-04-15T02:57:58.201Z,4.22
2023-04-15T02:58:58.217Z,4.20
2023-04-15T02:59:58.177Z,4.19
2023-04-15T03:00:58.178Z,4.19
2023-04-15T03:01:58.168Z,4.17
2023-04-15T03:02:58.347Z,4.17
2023-04-15T03:03:58.184Z,4.16
2023-04-15T03:04:58.111Z,4.17
2023-04-15T03:05:58.103Z,4.17
2023-04-15T03:06:58.093Z,4.19
2023-04-15T03:07:58.072Z,4.20
2023-04-15T03:08:58.050Z,4.20
2023-04-15T03:09:58.048Z,4.20
2023-04-15T03:10:58.072Z,4.22
2023-04-15T03:11:58.012Z,4.20
2023-04-15T03:12:58.011Z,4.19
2023-04-15T03:13:58.014Z,4.19
2023-04-15T03:14:57.982Z,4.20
2023-04-15T03:15:57.999Z,4.20
2023-04-15T03:16:57.937Z,4.22
2023-04-15T03:17:57.988Z,4.22
2023-04-15T03:18:57.947Z,4.20
2023-04-15T03:19:57.932Z,4.17
2023-04-15T03:20:57.883Z,4.19
2023-04-15T03:21:57.868Z,4.19
2023-04-15T03:22:57.852Z,4.17
2023-04-15T03:23:57.880Z,4.19
2023-04-15T03:24:57.840Z,4.19
2023-04-15T03:25:57.807Z,4.20
2023-04-15T03:26:57.808Z,4.20
2023-04-15T03:27:57.797Z,4.19
2023-04-15T03:28:57.784Z,4.17
2023-04-15T03:29:57.788Z,4.19
2023-04-15T03:30:57.748Z,4.20
2023-04-15T03:31:57.736Z,4.20
2023-04-15T03:32:57.807Z,4.22
2023-04-15T03:33:57.727Z,4.22
2023-04-15T03:34:57.754Z,4.22
2023-04-15T03:35:57.696Z,4.23
2023-04-15T03:36:57.673Z,4.24
2023-04-15T03:37:57.684Z,4.24
2023-04-15T03:38:57.643Z,4.24
2023-04-15T03:39:57.637Z,4.26
2023-04-15T03:40:57.622Z,4.24
2023-04-15T03:41:57.608Z,4.24
2023-04-15T03:42:57.647Z,4.23
2023-04-15T03:43:57.638Z,4.23
2023-04-15T03:44:57.591Z,4.22
2023-04-15T03:45:57.604Z,4.24
2023-04-15T03:46:57.546Z,4.24
2023-04-15T03:48:07.069Z,4.24
2023-04-15T03:48:57.545Z,4.26
2023-04-15T03:49:57.537Z,4.28
2023-04-15T03:50:57.511Z,4.30
2023-04-15T03:51:57.491Z,4.30
2023-04-15T03:52:57.469Z,4.30
2023-04-15T03:53:57.446Z,4.30
2023-04-15T03:54:57.476Z,4.31
2023-04-15T03:55:57.421Z,4.31
2023-04-15T03:56:57.405Z,4.32
2023-04-15T03:57:57.402Z,4.34
2023-04-15T03:58:57.416Z,4.34
2023-04-15T03:59:57.375Z,4.32
2023-04-15T04:00:57.352Z,4.34
2023-04-15T04:01:57.438Z,4.34
2023-04-15T04:02:57.490Z,4.32
2023-04-15T04:03:57.504Z,4.34
2023-04-15T04:04:57.299Z,4.34
2023-04-15T04:05:57.284Z,4.34
2023-04-15T04:06:57.285Z,4.34
2023-04-15T04:07:57.259Z,4.34
2023-04-15T04:08:57.281Z,4.35
2023-04-15T04:09:57.249Z,4.37
2023-04-15T04:10:57.265Z,4.37
2023-04-15T04:11:57.207Z,4.37
2023-04-15T04:12:57.190Z,4.37
2023-04-15T04:13:57.210Z,4.37
2023-04-15T04:14:57.160Z,4.38
2023-04-15T04:15:57.189Z,4.37
2023-04-15T04:16:57.224Z,4.38
2023-04-15T04:17:57.173Z,4.35
2023-04-15T04:18:57.178Z,4.34
2023-04-15T04:19:57.123Z,4.32
2023-04-15T04:20:57.115Z,4.34
2023-04-15T04:21:57.100Z,4.32
2023-04-15T04:22:57.063Z,4.32
2023-04-15T04:23:57.048Z,4.34
2023-04-15T04:24:57.056Z,4.32
2023-04-15T04:25:57.030Z,4.34
2023-04-15T04:26:57.001Z,4.32
2023-04-15T04:27:57.009Z,4.31
2023-04-15T04:28:56.986Z,4.31
2023-04-15T04:29:56.968Z,4.28
2023-04-15T04:30:56.999Z,4.24
2023-04-15T04:31:56.971Z,4.24
2023-04-15T04:32:57.020Z,4.24
2023-04-15T04:33:56.917Z,4.26
2023-04-15T04:34:56.903Z,4.26
2023-04-15T04:35:56.880Z,4.28
2023-04-15T04:36:56.855Z,4.30
2023-04-15T04:37:56.918Z,4.28
2023-04-15T04:38:56.848Z,4.28
2023-04-15T04:39:56.843Z,4.26
2023-04-15T04:40:56.806Z,4.26
2023-04-15T04:41:56.820Z,4.24
2023-04-15T04:42:56.835Z,4.24
2023-04-15T04:43:56.800Z,4.26
2023-04-15T04:44:56.769Z,4.26
2023-04-15T04:45:56.779Z,4.26
2023-04-15T04:46:56.756Z,4.26
2023-04-15T04:47:56.791Z,4.26
2023-04-15T04:48:56.708Z,4.28
2023-04-15T04:49:56.699Z,4.28
2023-04-15T04:50:56.670Z,4.31
2023-04-15T04:51:56.677Z,4.31
2023-04-15T04:52:56.667Z,4.30
2023-04-15T04:53:56.689Z,4.30
2023-04-15T04:54:56.635Z,4.28
2023-04-15T04:55:56.618Z,4.30
2023-04-15T04:56:56.613Z,4.28
2023-04-15T04:57:56.607Z,4.28
2023-04-15T04:58:56.618Z,4.28
2023-04-15T04:59:56.570Z,4.26
2023-04-15T05:00:56.588Z,4.28
2023-04-15T05:01:56.616Z,4.28
2023-04-15T05:02:56.660Z,4.30
2023-04-15T05:03:56.668Z,4.26
2023-04-15T05:04:56.512Z,4.30
2023-04-15T05:05:56.507Z,4.31
2023-04-15T05:06:56.480Z,4.32
2023-04-15T05:07:56.456Z,4.34
2023-04-15T05:08:56.499Z,4.32
2023-04-15T05:09:56.435Z,4.35
2023-04-15T05:10:56.425Z,4.35
2023-04-15T05:11:56.453Z,4.38
2023-04-15T05:12:56.401Z,4.38
2023-04-15T05:13:56.383Z,4.40
2023-04-15T05:14:56.372Z,4.38
2023-04-15T05:15:56.362Z,4.40
2023-04-15T05:16:56.332Z,4.40
2023-04-15T05:17:56.391Z,4.37
2023-04-15T05:18:56.315Z,4.37
2023-04-15T05:19:56.311Z,4.37
2023-04-15T05:20:56.303Z,4.40
2023-04-15T05:21:56.302Z,4.40
2023-04-15T05:22:56.248Z,4.37
2023-04-15T05:23:56.338Z,4.35
2023-04-15T05:24:56.245Z,4.35
2023-04-15T05:25:56.219Z,4.31
2023-04-15T05:26:56.231Z,4.31
2023-04-15T05:27:56.184Z,4.28
2023-04-15T05:28:56.171Z,4.28
2023-04-15T05:29:56.165Z,4.28
2023-04-15T05:30:56.185Z,4.30
2023-04-15T05:31:56.185Z,4.32
2023-04-15T05:32:56.162Z,4.34
2023-04-15T05:33:56.094Z,4.34
2023-04-15T05:34:56.080Z,4.37
2023-04-15T05:35:56.073Z,4.38
2023-04-15T05:36:56.088Z,4.40
2023-04-15T05:37:56.096Z,4.38
2023-04-15T05:38:56.065Z,4.38
2023-04-15T05:39:56.040Z,4.35
2023-04-15T05:40:56.012Z,4.35
2023-04-15T05:41:56.040Z,4.35
2023-04-15T05:42:56.010Z,4.37
2023-04-15T05:43:55.970Z,4.37
2023-04-15T05:44:55.966Z,4.38
2023-04-15T05:45:55.976Z,4.40
2023-04-15T05:46:55.942Z,4.41
2023-04-15T05:47:56.012Z,4.41
2023-04-15T05:48:56.618Z,4.41
2023-04-15T05:49:55.928Z,4.40
2023-04-15T05:50:55.890Z,4.38
2023-04-15T05:51:55.891Z,4.40
2023-04-15T05:52:55.849Z,4.40
2023-04-15T05:53:55.871Z,4.40
2023-04-15T05:54:55.840Z,4.41
2023-04-15T05:55:55.867Z,4.42
2023-04-15T05:56:55.807Z,4.42
2023-04-15T05:57:55.785Z,4.42
2023-04-15T05:58:55.813Z,4.48
2023-04-15T05:59:55.764Z,4.48
2023-04-15T06:00:55.809Z,4.48
2023-04-15T06:01:55.756Z,4.45
2023-04-15T06:02:55.774Z,4.40
2023-04-15T06:03:55.965Z,4.42
2023-04-15T06:04:55.725Z,4.41
2023-04-15T06:05:55.734Z,4.44
2023-04-15T06:06:55.671Z,4.45
2023-04-15T06:07:55.653Z,4.45
2023-04-15T06:08:55.636Z,4.48
2023-04-15T06:09:55.627Z,4.45
2023-04-15T06:10:55.634Z,4.45
2023-04-15T06:11:55.611Z,4.41
2023-04-15T06:12:55.600Z,4.40
2023-04-15T06:13:55.594Z,4.37
2023-04-15T06:14:55.606Z,4.34
2023-04-15T06:15:55.598Z,4.32
2023-04-15T06:16:55.547Z,4.28
2023-04-15T06:17:55.596Z,4.26
2023-04-15T06:18:55.509Z,4.26
2023-04-15T06:19:55.534Z,4.28
2023-04-15T06:20:55.500Z,4.28
2023-04-15T06:21:55.470Z,4.31
2023-04-15T06:22:55.456Z,4.32
2023-04-15T06:23:55.436Z,4.32
2023-04-15T06:24:55.489Z,4.35
2023-04-15T06:25:55.402Z,4.37
2023-04-15T06:26:55.476Z,4.40
2023-04-15T06:27:55.388Z,4.40
2023-04-15T06:28:55.374Z,4.42
2023-04-15T06:29:55.429Z,4.44
2023-04-15T06:30:55.384Z,4.44
2023-04-15T06:31:55.440Z,4.44
2023-04-15T06:32:55.352Z,4.48
2023-04-15T06:33:55.326Z,4.49
2023-04-15T06:34:55.293Z,4.50
2023-04-15T06:35:55.271Z,4.53
2023-04-15T06:36:55.285Z,4.58
2023-04-15T06:37:55.306Z,4.59
2023-04-15T06:38:55.256Z,4.60
2023-04-15T06:39:55.221Z,4.62
2023-04-15T06:40:55.203Z,4.62
2023-04-15T06:41:55.235Z,4.63
2023-04-15T06:42:55.174Z,4.63
2023-04-15T06:43:55.179Z,4.62
2023-04-15T06:44:55.163Z,4.62
2023-04-15T06:45:55.165Z,4.66
2023-04-15T06:46:55.156Z,4.63
2023-04-15T06:47:55.217Z,4.63
2023-04-15T06:48:55.099Z,4.63
2023-04-15T06:49:55.087Z,4.68
2023-04-15T06:50:55.068Z,4.70
2023-04-15T06:51:55.095Z,4.73
2023-04-15T06:52:55.076Z,4.78
2023-04-15T06:53:55.035Z,4.84
2023-04-15T06:54:55.018Z,4.89
2023-04-15T06:55:54.994Z,4.92
2023-04-15T06:56:55.008Z,4.93
2023-04-15T06:57:55.017Z,4.93
2023-04-15T06:58:54.999Z,4.93
2023-04-15T06:59:54.955Z,4.94
2023-04-15T07:00:54.958Z,4.94
2023-04-15T07:01:54.963Z,4.94
2023-04-15T07:02:54.951Z,4.94
2023-04-15T07:03:54.952Z,4.99
2023-04-15T07:04:54.878Z,4.99
2023-04-15T07:05:54.904Z,4.97
2023-04-15T07:06:54.854Z,4.97
2023-04-15T07:07:54.872Z,4.99
2023-04-15T07:08:54.829Z,4.96
2023-04-15T07:09:54.836Z,4.97
2023-04-15T07:10:54.933Z,5.00
2023-04-15T07:11:54.806Z,5.02
2023-04-15T07:12:54.777Z,5.08
2023-04-15T07:13:54.755Z,5.10
2023-04-15T07:14:54.753Z,5.11
2023-04-15T07:15:54.733Z,5.12
2023-04-15T07:16:54.786Z,5.11
2023-04-15T07:17:54.830Z,5.08
2023-04-15T07:18:54.701Z,5.10
2023-04-15T07:19:54.741Z,5.10
2023-04-15T07:20:54.700Z,5.12
2023-04-15T07:21:54.691Z,5.15
2023-04-15T07:22:54.651Z,5.18
2023-04-15T07:23:54.638Z,5.18
2023-04-15T07:24:54.639Z,5.20
2023-04-15T07:25:54.587Z,5.21
2023-04-15T07:26:54.615Z,5.21
2023-04-15T07:27:54.604Z,5.23
2023-04-15T07:28:54.579Z,5.23
2023-04-15T07:29:54.624Z,5.21
2023-04-15T07:30:54.634Z,5.21
2023-04-15T07:31:54.622Z,5.20
2023-04-15T07:32:54.649Z,5.20
2023-04-15T07:33:54.574Z,5.20
2023-04-15T07:34:54.600Z,5.20
2023-04-15T07:35:54.461Z,5.21
2023-04-15T07:36:54.606Z,5.21
2023-04-15T07:37:54.444Z,5.25
2023-04-15T07:38:54.436Z,5.23
2023-04-15T07:39:54.407Z,5.28
2023-04-15T07:40:54.407Z,5.28
2023-04-15T07:41:54.419Z,5.28
2023-04-15T07:42:54.446Z,5.29
2023-04-15T07:43:54.375Z,5.28
2023-04-15T07:44:54.365Z,5.29
2023-04-15T07:45:54.363Z,5.29
2023-04-15T07:46:54.328Z,5.30
2023-04-15T07:47:54.318Z,5.29
2023-04-15T07:48:54.332Z,5.30
2023-04-15T07:49:54.290Z,5.30
2023-04-15T07:50:54.281Z,5.29
2023-04-15T07:51:54.262Z,5.30
2023-04-15T07:52:54.257Z,5.28
2023-04-15T07:53:54.244Z,5.28
2023-04-15T07:54:54.232Z,5.28
2023-04-15T07:55:54.213Z,5.28
2023-04-15T07:56:54.245Z,5.26
2023-04-15T07:57:54.187Z,5.25
2023-04-15T07:58:54.198Z,5.26
2023-04-15T07:59:54.150Z,5.25
2023-04-15T08:00:54.126Z,5.26
2023-04-15T08:01:54.210Z,5.23
2023-04-15T08:02:54.217Z,5.21
2023-04-15T08:03:54.186Z,5.18
2023-04-15T08:04:54.171Z,5.20
2023-04-15T08:05:54.072Z,5.25
2023-04-15T08:06:54.057Z,5.25
2023-04-15T08:07:54.086Z,5.28
2023-04-15T08:08:54.031Z,5.32
2023-04-15T08:09:54.023Z,5.32
2023-04-15T08:10:54.022Z,5.35
2023-04-15T08:11:53.990Z,5.35
2023-04-15T08:12:53.991Z,5.35
2023-04-15T08:13:53.969Z,5.38
2023-04-15T08:14:54.025Z,5.39
2023-04-15T08:15:53.990Z,5.39
2023-04-15T08:16:53.938Z,5.43
2023-04-15T08:17:54.035Z,5.47
2023-04-15T08:18:53.950Z,5.46
2023-04-15T08:19:53.884Z,5.43
2023-04-15T08:20:53.861Z,5.44
2023-04-15T08:21:53.916Z,5.46
2023-04-15T08:22:53.842Z,5.44
2023-04-15T08:23:53.829Z,5.43
2023-04-15T08:24:53.811Z,5.43
2023-04-15T08:25:53.849Z,5.39
2023-04-15T08:26:53.794Z,5.35
2023-04-15T08:27:53.787Z,5.32
2023-04-15T08:28:53.767Z,5.35
2023-04-15T08:29:53.743Z,5.38
2023-04-15T08:30:53.723Z,5.38
2023-04-15T08:31:53.852Z,5.39
2023-04-15T08:32:53.733Z,5.39
2023-04-15T08:33:53.724Z,5.35
2023-04-15T08:34:53.699Z,5.33
2023-04-15T08:35:53.687Z,5.33
2023-04-15T08:36:53.754Z,5.35
2023-04-15T08:37:53.672Z,5.36
2023-04-15T08:38:53.636Z,5.39
2023-04-15T08:39:53.621Z,5.38
2023-04-15T08:40:53.610Z,5.39
2023-04-15T08:41:53.572Z,5.41
2023-04-15T08:42:53.614Z,5.43
2023-04-15T08:43:53.621Z,5.44
2023-04-15T08:44:53.543Z,5.44
2023-04-15T08:45:53.537Z,5.46
2023-04-15T08:46:53.577Z,5.44
2023-04-15T08:47:53.560Z,5.46
2023-04-15T08:48:53.489Z,5.48
2023-04-15T08:49:53.472Z,5.47
2023-04-15T08:50:53.451Z,5.48
2023-04-15T08:51:53.486Z,5.50
2023-04-15T08:52:53.458Z,5.53
2023-04-15T08:53:53.432Z,5.51
2023-04-15T08:54:53.492Z,5.54
2023-04-15T08:55:53.425Z,5.56
2023-04-15T08:56:53.416Z,5.64
2023-04-15T08:57:53.376Z,5.65
2023-04-15T08:58:53.362Z,5.69
2023-04-15T08:59:53.348Z,5.75
2023-04-15T09:00:53.391Z,5.76
2023-04-15T09:01:53.364Z,5.83
2023-04-15T09:02:53.381Z,5.87
2023-04-15T09:03:53.398Z,5.91
2023-04-15T09:04:53.276Z,5.93
2023-04-15T09:05:53.394Z,5.94
2023-04-15T09:06:53.255Z,5.99
2023-04-15T09:07:53.240Z,6.01
2023-04-15T09:08:53.247Z,5.99
2023-04-15T09:09:53.211Z,5.99
2023-04-15T09:10:53.273Z,6.01
2023-04-15T09:11:53.202Z,5.99
2023-04-15T09:12:53.193Z,5.99
2023-04-15T09:13:53.197Z,6.05
2023-04-15T09:14:53.145Z,6.05
2023-04-15T09:15:53.142Z,6.08
2023-04-15T09:16:53.186Z,6.07
2023-04-15T09:17:53.192Z,6.08
2023-04-15T09:18:53.090Z,6.11
2023-04-15T09:19:53.077Z,6.11
2023-04-15T09:20:53.056Z,6.11
2023-04-15T09:21:53.043Z,6.14
2023-04-15T09:22:53.063Z,6.14
2023-04-15T09:23:53.009Z,6.11
2023-04-15T09:24:53.005Z,6.09
2023-04-15T09:25:52.985Z,6.09
2023-04-15T09:26:53.002Z,6.12
2023-04-15T09:27:52.956Z,6.16
2023-04-15T09:28:53.007Z,6.20
2023-04-15T09:29:52.954Z,6.20
2023-04-15T09:30:52.946Z,6.19
2023-04-15T09:31:52.936Z,6.16
2023-04-15T09:32:53.024Z,6.16
2023-04-15T09:33:52.886Z,6.20
2023-04-15T09:34:52.882Z,6.19
2023-04-15T09:35:52.896Z,6.20
2023-04-15T09:36:52.842Z,6.24
2023-04-15T09:37:52.868Z,6.22
2023-04-15T09:38:52.850Z,6.22
2023-04-15T09:39:52.802Z,6.17
2023-04-15T09:40:52.832Z,6.17
2023-04-15T09:41:52.792Z,6.14
2023-04-15T09:42:52.801Z,6.17
2023-04-15T09:43:52.744Z,6.19
2023-04-15T09:44:52.743Z,6.17
2023-04-15T09:45:52.753Z,6.19
2023-04-15T09:46:52.700Z,6.20
2023-04-15T09:47:52.745Z,6.20
2023-04-15T09:48:52.741Z,6.22
2023-04-15T09:49:52.731Z,6.26
2023-04-15T09:50:52.667Z,6.24
2023-04-15T09:52:04.516Z,6.26
2023-04-15T09:52:52.634Z,6.22
2023-04-15T09:53:52.644Z,6.20
2023-04-15T09:54:52.596Z,6.17
2023-04-15T09:55:52.655Z,6.11
2023-04-15T09:56:52.613Z,6.08
2023-04-15T09:57:52.589Z,6.07
2023-04-15T09:58:52.550Z,6.07
2023-04-15T09:59:52.586Z,6.05
2023-04-15T10:00:52.545Z,6.05
2023-04-15T10:01:52.639Z,6.08
2023-04-15T10:02:52.787Z,6.08
2023-04-15T10:03:52.705Z,6.08
2023-04-15T10:04:52.488Z,6.07
2023-04-15T10:05:52.498Z,6.07
2023-04-15T10:06:52.450Z,6.08
2023-04-15T10:07:52.447Z,6.05
2023-04-15T10:08:52.441Z,6.07
2023-04-15T10:09:52.434Z,6.09
2023-04-15T10:10:52.384Z,6.12
2023-04-15T10:11:52.392Z,6.12
2023-04-15T10:12:52.360Z,6.14
2023-04-15T10:13:52.347Z,6.17
2023-04-15T10:14:52.379Z,6.16
2023-04-15T10:15:52.370Z,6.16
2023-04-15T10:16:52.326Z,6.14
2023-04-15T10:17:52.335Z,6.16
2023-04-15T10:18:52.296Z,6.14
2023-04-15T10:19:52.303Z,6.17
2023-04-15T10:20:52.293Z,6.17
2023-04-15T10:21:52.250Z,6.22
2023-04-15T10:22:52.220Z,6.26
2023-04-15T10:23:52.225Z,6.27
2023-04-15T10:24:52.205Z,6.28
2023-04-15T10:25:52.216Z,6.27
2023-04-15T10:26:52.177Z,6.27
2023-04-15T10:27:52.150Z,6.27
2023-04-15T10:28:52.144Z,6.31
2023-04-15T10:29:52.151Z,6.36
2023-04-15T10:30:52.196Z,6.36
2023-04-15T10:31:52.129Z,6.39
2023-04-15T10:32:52.142Z,6.44
2023-04-15T10:33:52.129Z,6.44
2023-04-15T10:34:54.319Z,6.46
2023-04-15T10:35:52.086Z,6.45
2023-04-15T10:36:52.045Z,6.48
2023-04-15T10:37:52.023Z,6.49
2023-04-15T10:38:52.025Z,6.51
2023-04-15T10:39:52.001Z,6.52
2023-04-15T10:40:52.010Z,6.56
2023-04-15T10:41:51.962Z,6.60
2023-04-15T10:42:51.959Z,6.60
2023-04-15T10:43:51.954Z,6.63
2023-04-15T10:44:51.974Z,6.66
2023-04-15T10:45:51.962Z,6.70
2023-04-15T10:46:52.037Z,6.69
2023-04-15T10:47:51.983Z,6.74
2023-04-15T10:48:51.887Z,6.72
2023-04-15T10:49:51.957Z,6.74
2023-04-15T10:50:51.857Z,6.75
2023-04-15T10:51:51.912Z,6.78
2023-04-15T10:52:51.858Z,6.79
2023-04-15T10:56:18.818Z,6.78
2023-04-15T10:56:24.173Z,6.79
2023-04-15T10:57:24.162Z,6.78
2023-04-15T10:58:24.196Z,6.78
2023-04-15T10:59:24.170Z,6.75
2023-04-15T11:00:24.187Z,6.75
2023-04-15T11:01:24.170Z,6.74
2023-04-15T11:02:24.349Z,6.77
2023-04-15T11:03:24.184Z,6.77
2023-04-15T11:04:24.242Z,6.77
2023-04-15T11:05:24.090Z,6.77
2023-04-15T11:06:24.090Z,6.77
2023-04-15T11:07:24.028Z,6.79
2023-04-15T11:08:24.014Z,6.81
2023-04-15T11:09:24.037Z,6.84
2023-04-15T11:10:23.995Z,6.85
2023-04-15T11:11:23.976Z,6.88
2023-04-15T11:12:23.980Z,6.87
2023-04-15T11:13:23.965Z,6.88
2023-04-15T11:14:23.993Z,6.89
2023-04-15T11:15:23.928Z,6.93
2023-04-15T11:16:24.006Z,6.92
2023-04-15T11:17:23.940Z,6.89
2023-04-15T11:18:23.906Z,6.89
2023-04-15T11:19:23.868Z,6.89
2023-04-15T11:20:23.885Z,6.88
2023-04-15T11:21:23.871Z,6.88
2023-04-15T11:22:23.822Z,6.88
2023-04-15T11:23:23.860Z,6.89
2023-04-15T11:24:23.810Z,6.92
2023-04-15T11:25:23.781Z,6.95
2023-04-15T11:26:23.769Z,6.95
2023-04-15T11:27:23.749Z,6.97
2023-04-15T11:28:23.757Z,6.99
2023-04-15T11:29:23.744Z,7.00
2023-04-15T11:30:23.849Z,7.02
2023-04-15T11:31:23.752Z,6.99
2023-04-15T11:32:23.736Z,6.97
2023-04-15T11:33:23.730Z,6.93
2023-04-15T11:34:23.673Z,6.88
2023-04-15T11:35:23.653Z,6.88
2023-04-15T11:36:23.639Z,6.84
2023-04-15T11:37:23.628Z,6.82
2023-04-15T11:38:23.636Z,6.79
2023-04-15T11:39:23.607Z,6.78
2023-04-15T11:40:23.580Z,6.77
2023-04-15T11:41:23.588Z,6.74
2023-04-15T11:42:23.562Z,6.74
2023-04-15T11:43:23.562Z,6.75
2023-04-15T11:44:23.552Z,6.75
2023-04-15T11:45:23.523Z,6.77
2023-04-15T11:46:23.527Z,6.70
2023-04-15T11:47:23.550Z,6.60
2023-04-15T11:48:23.469Z,6.49
2023-04-15T11:49:23.495Z,6.42
2023-04-15T11:50:23.626Z,6.36
2023-04-15T11:51:23.442Z,6.36
2023-04-15T11:52:23.423Z,6.36
2023-04-15T11:53:23.452Z,6.41
2023-04-15T11:54:23.432Z,6.41
2023-04-15T11:55:23.397Z,6.44
2023-04-15T11:56:23.363Z,6.49
2023-04-15T11:57:23.354Z,6.54
2023-04-15T11:58:23.365Z,6.59
2023-04-15T11:59:26.322Z,6.63
2023-04-15T12:00:23.343Z,6.60
2023-04-15T12:01:23.316Z,6.63
2023-04-15T12:02:23.381Z,6.67
2023-04-15T12:03:23.562Z,6.72
2023-04-15T12:04:25.186Z,6.78
2023-04-15T12:05:23.329Z,6.82
2023-04-15T12:06:23.256Z,6.87
2023-04-15T12:07:23.232Z,6.89
2023-04-15T12:08:23.210Z,6.93
2023-04-15T12:09:23.243Z,6.97
2023-04-15T12:10:23.180Z,6.97
2023-04-15T12:11:23.197Z,6.99
2023-04-15T12:12:23.147Z,7.00
2023-04-15T12:13:23.135Z,7.03
2023-04-15T12:14:23.117Z,6.99
2023-04-15T12:15:23.147Z,7.02
2023-04-15T12:16:23.226Z,7.05
2023-04-15T12:17:23.137Z,7.06
2023-04-15T12:18:23.072Z,7.10
2023-04-15T12:19:23.054Z,7.13
2023-04-15T12:20:23.046Z,7.15
2023-04-15T12:21:23.062Z,7.15
2023-04-15T12:22:23.049Z,7.15
2023-04-15T12:23:23.004Z,7.17
2023-04-15T12:24:23.099Z,7.18
2023-04-15T12:25:22.974Z,7.17
2023-04-15T12:26:22.979Z,7.21
2023-04-15T12:27:22.964Z,7.24
2023-04-15T12:28:23.007Z,7.25
2023-04-15T12:29:22.932Z,7.25
2023-04-15T12:30:22.915Z,7.24
2023-04-15T12:31:22.934Z,7.25
2023-04-15T12:32:22.949Z,7.23
2023-04-15T12:33:22.878Z,7.25
2023-04-15T12:34:22.892Z,7.25
2023-04-15T12:35:22.898Z,7.29
2023-04-15T12:36:22.831Z,7.28
2023-04-15T12:37:22.824Z,7.29
2023-04-15T12:38:22.828Z,7.31
2023-04-15T12:39:22.791Z,7.31
2023-04-15T12:40:22.820Z,7.32
2023-04-15T12:41:22.764Z,7.32
2023-04-15T12:42:22.800Z,7.31
2023-04-15T12:43:22.732Z,7.29
2023-04-15T12:44:22.749Z,7.31
2023-04-15T12:45:22.732Z,7.32
2023-04-15T12:46:22.749Z,7.33
2023-04-15T12:47:22.707Z,7.31
2023-04-15T12:48:22.675Z,7.29
2023-04-15T12:49:22.650Z,7.29
2023-04-15T12:50:22.673Z,7.29
2023-04-15T12:51:22.645Z,7.25
2023-04-15T12:52:22.634Z,7.24
2023-04-15T12:53:22.605Z,7.24
2023-04-15T12:54:22.593Z,7.23
2023-04-15T12:55:22.618Z,7.21
2023-04-15T12:56:22.573Z,7.18
2023-04-15T12:57:22.559Z,7.18
2023-04-15T12:58:22.533Z,7.17
2023-04-15T12:59:22.540Z,7.18
2023-04-15T13:00:22.587Z,7.13
2023-04-15T13:01:22.510Z,7.11
2023-04-15T13:02:22.682Z,7.11
2023-04-15T13:03:22.568Z,7.13
2023-04-15T13:04:23.625Z,7.10
2023-04-15T13:05:22.448Z,7.11
2023-04-15T13:06:22.428Z,7.11
2023-04-15T13:07:22.416Z,7.07
2023-04-15T13:08:22.427Z,7.10
2023-04-15T13:09:22.392Z,7.11
2023-04-15T13:10:22.395Z,7.13
2023-04-15T13:11:22.390Z,7.13
2023-04-15T13:12:22.368Z,7.13
2023-04-15T13:13:22.360Z,7.10
2023-04-15T13:14:22.332Z,7.10
2023-04-15T13:15:22.308Z,7.10
2023-04-15T13:16:22.358Z,7.07
2023-04-15T13:17:22.318Z,7.07
2023-04-15T13:18:22.264Z,7.06
2023-04-15T13:19:22.264Z,7.05